Terminal Aerodrome Forecast
Issued by NWS

Home | Current Version | Previous Version | Text Only | Print | Product List | Glossary On
Versions: 1 2 3 4 5 6 7 8 9 10 11 12 13 14 15 16 17 18 19 20 21 22 23
000
FTUS44 KOHX 310500
TAFCKV
TAF
KCKV 310538Z 3106/0106 00000KT P6SM OVC080
     FM311400 33010KT P6SM OVC025
     FM311700 33014G25KT P6SM OVC020
     FM010000 32012KT P6SM SKC=

USA.gov is the U.S. government's official web portal to all federal, state and local government web resources and services.